Time;durP1;ratioP1;P1;durP2;ratioP2;P2;SDS_P1;SDS_P2;PMS_P1;PMS_P2;Temp;Humidity;BMP_temperature;BMP_pressure;BME280_temperature;BME280_humidity;BME280_pressure;Samples;Min_cycle;Max_cycle;Signal;HPM_P1;HPM_P2
2022/09/30 14:05:03;;;;;;;3.17;1.70;;;;;;;18.63;56.71;100924.09;5146980;27;20647;-41
2022/09/30 14:08:12;;;;;;;3.90;1.73;;;;;;;18.87;55.93;100914.56;5132677;27;20096;-39
2022/09/30 14:10:41;;;;;;;5.43;1.65;;;;;;;19.08;55.87;100915.03;5133947;27;20051;-38
2022/09/30 14:13:32;;;;;;;11.23;1.95;;;;;;;19.22;55.14;100911.75;5136655;27;20043;-39
2022/09/30 14:16:36;;;;;;;3.92;1.85;;;;;;;19.39;55.20;100909.16;5134683;27;20042;-38
2022/09/30 14:19:41;;;;;;;3.53;1.80;;;;;;;19.53;54.17;100905.84;5136930;27;20061;-39
2022/09/30 18:13:05;;;;;;;16.75;9.57;;;;;;;18.31;56.45;100784.28;5073144;27;20771;-39
2022/09/30 18:15:32;;;;;;;14.98;9.10;;;;;;;18.52;56.83;100781.22;5055198;28;20075;-40
2022/09/30 18:17:58;;;;;;;14.57;8.65;;;;;;;18.71;55.69;100779.19;5057889;28;20438;-38
2022/09/30 18:20:25;;;;;;;14.85;8.25;;;;;;;18.87;55.91;100777.59;5057922;28;20045;-38
2022/09/30 18:22:52;;;;;;;13.48;8.07;;;;;;;19.01;55.32;100768.91;5058194;28;20044;-39
2022/09/30 18:25:18;;;;;;;14.52;8.10;;;;;;;19.13;55.04;100761.41;5060217;28;20521;-40
2022/09/30 18:27:46;;;;;;;13.38;8.07;;;;;;;19.23;54.18;100757.59;5056998;28;20135;-39
2022/09/30 18:30:13;;;;;;;13.88;8.25;;;;;;;19.33;54.18;100756.59;5055470;28;20044;-39
2022/09/30 18:32:40;;;;;;;14.73;8.32;;;;;;;19.42;53.72;100752.94;5042407;28;20049;-40
2022/09/30 18:35:11;;;;;;;11.15;6.68;;;;;;;19.49;53.33;100746.72;4993926;28;20069;-40
2022/09/30 18:37:38;;;;;;;10.95;6.97;;;;;;;19.58;53.68;100742.22;5009333;28;20266;-39
2022/09/30 18:40:05;;;;;;;12.25;7.50;;;;;;;19.66;53.11;100738.72;5005861;28;20060;-40
2022/09/30 18:42:32;;;;;;;13.93;7.15;;;;;;;19.71;52.96;100734.53;5005078;28;20049;-39
2022/09/30 18:44:58;;;;;;;12.70;7.22;;;;;;;19.77;51.93;100716.03;5007023;28;20049;-39
2022/09/30 18:47:25;;;;;;;10.35;6.57;;;;;;;19.82;52.04;100717.22;5009759;28;20049;-39
2022/09/30 18:49:51;;;;;;;9.65;6.53;;;;;;;19.87;52.32;100701.41;5007259;28;20486;-39
2022/09/30 18:52:18;;;;;;;11.18;6.80;;;;;;;19.92;51.68;100698.19;5008111;28;20323;-39
2022/09/30 18:54:44;;;;;;;10.35;6.57;;;;;;;19.97;52.16;100693.13;4979472;28;20068;-38
2022/09/30 18:57:11;;;;;;;10.48;6.22;;;;;;;20.01;51.31;100685.56;4989584;28;20059;-39
2022/09/30 18:59:37;;;;;;;10.55;6.22;;;;;;;20.03;51.30;100679.03;5004437;28;20053;-38
2022/09/30 19:02:04;;;;;;;9.60;6.10;;;;;;;20.06;51.81;100672.44;5011155;28;20049;-38
2022/09/30 19:04:30;;;;;;;10.25;6.32;;;;;;;20.06;51.89;100670.63;5010766;28;21330;-39
2022/09/30 19:06:57;;;;;;;10.02;5.95;;;;;;;20.07;50.94;100674.97;5013032;28;20058;-40
2022/09/30 19:09:25;;;;;;;10.32;6.00;;;;;;;20.08;51.08;100676.66;5000437;28;20053;-39
2022/09/30 19:11:52;;;;;;;12.85;6.63;;;;;;;20.10;51.55;100671.97;5007391;28;20045;-38
2022/09/30 19:14:18;;;;;;;14.90;7.70;;;;;;;20.11;51.43;100679.00;4970030;28;20652;-38
2022/09/30 19:16:45;;;;;;;13.98;8.98;;;;;;;20.13;51.25;100666.22;5007551;28;20054;-38
2022/09/30 19:19:11;;;;;;;16.73;10.75;;;;;;;20.14;51.56;100667.91;5004931;28;20318;-39
2022/09/30 19:21:38;;;;;;;16.80;10.15;;;;;;;20.16;50.93;100668.56;5009109;28;20111;-38
2022/09/30 19:24:07;;;;;;;17.63;11.38;;;;;;;20.15;51.18;100672.28;4993525;28;20045;-38
2022/09/30 19:26:35;;;;;;;20.38;11.90;;;;;;;20.17;50.77;100664.00;4991379;28;20350;-39
2022/09/30 19:29:04;;;;;;;21.80;12.90;;;;;;;20.17;51.06;100658.63;4995966;28;20064;-39
2022/09/30 19:31:32;;;;;;;19.55;12.05;;;;;;;20.19;50.52;100664.69;4989380;28;20049;-38
2022/09/30 19:34:00;;;;;;;21.25;12.45;;;;;;;20.19;51.08;100670.91;4948696;28;20120;-39
2022/09/30 19:36:27;;;;;;;18.73;11.80;;;;;;;20.21;50.03;100666.19;4977137;28;20061;-39
2022/09/30 19:38:58;;;;;;;19.95;12.13;;;;;;;20.23;50.60;100667.88;4989776;28;20052;-39
2022/09/30 19:41:36;;;;;;;19.30;12.40;;;;;;;20.24;50.58;100661.50;4996394;28;20121;-39
2022/09/30 19:44:03;;;;;;;19.38;11.60;;;;;;;20.24;50.12;100653.41;4992693;28;20065;-39
2022/09/30 19:46:29;;;;;;;21.52;12.52;;;;;;;20.25;50.39;100644.31;4989647;28;20466;-39
2022/09/30 19:48:56;;;;;;;21.17;12.23;;;;;;;20.27;50.55;100639.63;4995973;28;20058;-39
2022/09/30 19:51:23;;;;;;;19.90;11.85;;;;;;;20.27;50.25;100639.63;4995708;28;20061;-39
2022/09/30 19:53:50;;;;;;;19.08;12.40;;;;;;;20.27;50.14;100636.94;4952193;28;20490;-40
2022/09/30 19:56:31;;;;;;;21.17;13.02;;;;;;;20.28;50.60;100625.97;4982221;28;20054;-39
2022/09/30 19:58:58;;;;;;;22.95;12.15;;;;;;;20.31;50.05;100611.34;4992853;28;20058;-38
2022/09/30 20:01:29;;;;;;;17.20;10.55;;;;;;;20.31;49.98;100605.97;4991854;28;20046;-38
